Time;durP1;ratioP1;P1;durP2;ratioP2;P2;SDS_P1;SDS_P2;PMS_P1;PMS_P2;Temp;Humidity;BMP_temperature;BMP_pressure;BME280_temperature;BME280_humidity;BME280_pressure;Samples;Min_cycle;Max_cycle;Signal;HPM_P1;HPM_P2
2023/03/07 00:03:38;;;;;;;11.02;6.93;;;;;;;2.15;95.59;100491.56;10415642;28;20136;-77
2023/03/07 00:08:39;;;;;;;13.63;8.25;;;;;;;1.24;96.36;100382.78;10415471;28;20519;-78
2023/03/07 00:13:40;;;;;;;13.30;8.57;;;;;;;1.95;96.68;100529.69;10414970;28;20054;-77
2023/03/07 00:18:41;;;;;;;16.15;8.05;;;;;;;1.49;97.19;100489.19;10436448;28;20072;-76
2023/03/07 00:23:43;;;;;;;14.02;8.32;;;;;;;1.52;97.51;100509.09;10455747;28;20077;-77
2023/03/07 00:28:47;;;;;;;14.38;9.48;;;;;;;1.51;97.59;100516.13;10438236;28;20136;-77
2023/03/07 00:33:48;;;;;;;16.55;9.27;;;;;;;1.58;97.66;100550.56;10439204;28;20497;-77
2023/03/07 00:38:50;;;;;;;17.63;9.43;;;;;;;1.22;97.80;100491.09;10432137;28;20132;-78
2023/03/07 00:43:52;;;;;;;13.40;8.93;;;;;;;1.42;97.92;100549.97;10414714;28;20461;-78
2023/03/07 00:48:53;;;;;;;16.30;8.82;;;;;;;1.29;97.89;100560.44;10432664;28;20087;-78
2023/03/07 00:53:53;;;;;;;19.30;8.88;;;;;;;0.92;97.62;100528.84;10454989;28;20076;-79
2023/03/07 00:58:54;;;;;;;19.75;9.60;;;;;;;0.82;98.12;100539.09;10454280;28;20102;-79
2023/03/07 01:03:55;;;;;;;18.58;10.15;;;;;;;0.40;97.88;100483.44;10454754;28;20560;-79
2023/03/07 01:08:58;;;;;;;16.95;9.27;;;;;;;0.43;98.00;100503.31;10425938;28;20045;-79
2023/03/07 01:14:01;;;;;;;15.05;10.05;;;;;;;0.55;98.50;100538.28;10412868;28;20045;-79
2023/03/07 01:19:05;;;;;;;15.13;10.25;;;;;;;0.19;98.90;100495.28;10413775;28;20057;-79
2023/03/07 01:24:09;;;;;;;17.63;9.75;;;;;;;0.53;99.27;100555.81;10413054;28;20052;-80
2023/03/07 01:29:11;;;;;;;17.98;10.15;;;;;;;0.57;99.06;100578.19;10412378;28;20099;-80
2023/03/07 01:34:12;;;;;;;14.13;10.23;;;;;;;0.33;99.22;100539.66;10413014;28;20107;-80
2023/03/07 01:39:15;;;;;;;19.75;10.55;;;;;;;0.14;98.95;100536.50;10412847;28;20144;-80
2023/03/07 01:44:23;;;;;;;16.75;10.70;;;;;;;0.41;99.00;100605.31;10395646;28;20050;-79
2023/03/07 01:49:28;;;;;;;19.52;11.65;;;;;;;0.37;99.32;100592.56;10412884;28;20112;-80
2023/03/07 01:54:31;;;;;;;18.40;11.05;;;;;;;0.31;99.65;100588.56;10411497;28;20440;-79
2023/03/07 01:59:39;;;;;;;16.73;11.30;;;;;;;0.36;99.51;100596.94;10412425;28;20099;-80
2023/03/07 02:05:10;;;;;;;16.35;11.65;;;;;;;0.26;99.05;100595.81;10395486;28;20495;-80
2023/03/07 02:10:13;;;;;;;16.65;10.18;;;;;;;-0.31;98.94;100560.16;10424253;28;20509;-82
2023/03/07 02:15:14;;;;;;;17.23;9.85;;;;;;;-0.88;98.18;100510.53;10443431;28;20501;-82
2023/03/07 02:20:28;;;;;;;14.02;9.25;;;;;;;-0.96;99.56;100526.63;10460181;28;20083;-81
2023/03/07 02:25:50;;;;;;;17.38;11.10;;;;;;;-0.29;100.00;100638.38;10460918;28;20049;-81
2023/03/07 02:31:11;;;;;;;20.10;12.68;;;;;;;-0.21;100.00;100643.13;10461898;28;20481;-81
2023/03/07 02:36:16;;;;;;;35.20;12.63;;;;;;;-0.67;100.00;100568.41;10459240;28;20504;-80
2023/03/07 02:41:22;;;;;;;16.08;10.50;;;;;;;-1.16;100.00;100506.09;10459885;28;20099;-80
2023/03/07 02:46:23;;;;;;;21.02;12.38;;;;;;;-1.71;99.98;100418.06;10431931;28;20053;-80
2023/03/07 02:51:24;;;;;;;18.88;12.02;;;;;;;-0.89;99.74;100547.13;10418899;28;20053;-80
2023/03/07 02:56:25;;;;;;;18.92;12.30;;;;;;;-0.55;100.00;100608.59;10419114;28;20136;-80
2023/03/07 03:01:38;;;;;;;19.85;12.05;;;;;;;-1.11;100.00;100526.66;10417169;28;20053;-78
2023/03/07 03:06:39;;;;;;;16.08;11.05;;;;;;;-0.71;100.00;100619.94;10415187;28;20502;-77
2023/03/07 03:11:40;;;;;;;17.60;10.70;;;;;;;-0.62;100.00;100655.09;10398166;28;20057;-79
2023/03/07 03:16:41;;;;;;;21.15;11.35;;;;;;;-0.90;99.35;100615.84;10414465;28;20053;-79
2023/03/07 03:21:42;;;;;;;19.95;10.68;;;;;;;-0.95;99.56;100619.56;10414212;28;20532;-77
2023/03/07 03:26:43;;;;;;;19.10;10.48;;;;;;;-1.05;99.01;100628.00;10414885;28;20052;-76
2023/03/07 03:31:44;;;;;;;16.90;10.90;;;;;;;-0.99;98.94;100654.59;10391800;28;20060;-75
2023/03/07 03:36:44;;;;;;;21.05;11.32;;;;;;;-1.43;98.80;100605.78;10423068;28;20471;-74
2023/03/07 03:41:45;;;;;;;17.73;10.88;;;;;;;-1.07;98.87;100668.97;10416495;28;20057;-74
2023/03/07 03:46:47;;;;;;;25.90;10.70;;;;;;;-1.19;98.67;100647.03;10416199;28;20417;-74
2023/03/07 03:51:48;;;;;;;24.08;11.38;;;;;;;-1.24;97.94;100620.38;10416094;28;20053;-78
2023/03/07 03:56:49;;;;;;;21.60;10.88;;;;;;;-0.80;98.42;100677.84;10416256;28;20171;-74
2023/03/07 04:01:49;;;;;;;18.80;12.43;;;;;;;-0.66;97.66;100648.34;10415781;28;20156;-77
2023/03/07 04:06:50;;;;;;;20.67;11.40;;;;;;;0.02;97.35;100694.81;10415041;28;20115;-75
2023/03/07 04:11:51;;;;;;;21.25;12.55;;;;;;;0.33;97.05;100682.50;10414485;28;20417;-79
2023/03/07 04:16:52;;;;;;;25.98;13.18;;;;;;;0.83;96.85;100702.91;10414740;28;20091;-76
2023/03/07 04:21:53;;;;;;;33.08;14.70;;;;;;;1.03;95.26;100701.63;10414263;28;20509;-78
2023/03/07 04:26:54;;;;;;;22.70;13.32;;;;;;;0.44;94.41;100606.91;10414726;28;20057;-78
2023/03/07 04:31:54;;;;;;;24.20;13.57;;;;;;;1.16;94.40;100712.16;10413539;28;20049;-77
2023/03/07 04:36:55;;;;;;;27.73;14.95;;;;;;;1.41;95.09;100705.31;10413913;28;20053;-81
2023/03/07 04:41:56;;;;;;;25.95;14.50;;;;;;;0.58;94.92;100538.91;10413640;28;20053;-77
2023/03/07 04:46:56;;;;;;;22.45;15.07;;;;;;;0.94;94.53;100568.00;10424935;28;20053;-79
2023/03/07 04:51:57;;;;;;;28.23;15.60;;;;;;;1.93;94.59;100686.16;10423982;28;20529;-79
2023/03/07 04:56:58;;;;;;;21.50;13.38;;;;;;;1.69;94.21;100584.72;10412642;28;20044;-79
2023/03/07 05:01:59;;;;;;;25.10;16.38;;;;;;;2.09;93.72;100602.91;10413527;28;20057;-79
2023/03/07 05:07:00;;;;;;;21.73;14.68;;;;;;;3.14;93.21;100717.84;10413452;28;20152;-79
2023/03/07 05:12:00;;;;;;;25.08;16.65;;;;;;;2.82;92.78;100609.13;10413828;28;20496;-77
2023/03/07 05:17:01;;;;;;;29.80;17.45;;;;;;;3.76;92.84;100710.69;10411993;28;20095;-77
2023/03/07 05:22:02;;;;;;;27.73;19.08;;;;;;;3.76;92.13;100690.50;10412915;28;20049;-77
2023/03/07 05:27:03;;;;;;;36.38;21.63;;;;;;;3.97;91.54;100690.66;10413539;28;20060;-77
2023/03/07 05:32:04;;;;;;;32.20;21.52;;;;;;;4.14;90.76;100663.09;10412463;28;20544;-77
2023/03/07 05:37:04;;;;;;;32.55;21.17;;;;;;;4.12;89.69;100631.66;10412297;28;20593;-77
2023/03/07 05:42:05;;;;;;;34.88;22.30;;;;;;;4.37;89.24;100626.25;10412739;28;20041;-77
2023/03/07 05:47:06;;;;;;;34.53;22.75;;;;;;;4.87;89.36;100666.97;10419346;28;20448;-77
2023/03/07 05:52:07;;;;;;;38.13;26.23;;;;;;;5.09;87.98;100678.41;10403215;28;20095;-78
2023/03/07 05:57:08;;;;;;;37.78;26.08;;;;;;;5.39;87.20;100702.25;10402142;28;20144;-78
2023/03/07 06:02:08;;;;;;;41.78;28.27;;;;;;;5.15;85.97;100631.34;10420422;28;20049;-78
2023/03/07 06:07:09;;;;;;;40.35;26.85;;;;;;;5.83;84.83;100707.44;10419426;28;20072;-78
2023/03/07 06:12:10;;;;;;;42.30;28.55;;;;;;;5.41;84.49;100605.47;10420514;28;20057;-78
2023/03/07 06:17:10;;;;;;;37.88;26.45;;;;;;;6.39;83.36;100723.75;10420028;28;20068;-80
2023/03/07 06:22:11;;;;;;;39.60;26.98;;;;;;;6.16;81.74;100636.03;10419857;28;20053;-80
2023/03/07 06:27:13;;;;;;;38.97;27.00;;;;;;;6.79;80.39;100720.31;10418869;28;20425;-80
2023/03/07 06:32:14;;;;;;;35.42;24.35;;;;;;;6.66;79.30;100666.91;10419285;28;20050;-78
2023/03/07 06:37:14;;;;;;;40.85;24.45;;;;;;;6.47;77.79;100606.97;10419146;28;20055;-79
2023/03/07 06:42:16;;;;;;;37.88;25.00;;;;;;;7.10;77.04;100643.63;10418298;28;20494;-79
2023/03/07 06:47:17;;;;;;;40.33;25.75;;;;;;;7.74;77.10;100718.88;10418875;28;20088;-80
2023/03/07 06:52:18;;;;;;;31.90;22.80;;;;;;;7.82;75.61;100689.94;10418491;28;20052;-79
2023/03/07 06:57:19;;;;;;;32.17;23.42;;;;;;;8.24;75.09;100716.00;10416926;28;20053;-80
2023/03/07 07:02:20;;;;;;;31.52;22.50;;;;;;;7.53;73.71;100643.19;10417395;28;20056;-80
2023/03/07 07:07:21;;;;;;;25.02;17.80;;;;;;;8.27;72.90;100710.44;10418296;28;20087;-80
2023/03/07 07:12:22;;;;;;;19.15;14.48;;;;;;;8.14;70.68;100675.53;10417838;28;20042;-80
2023/03/07 07:17:23;;;;;;;25.58;17.02;;;;;;;8.19;68.92;100647.63;10417522;28;20063;-81
2023/03/07 07:22:23;;;;;;;24.98;18.05;;;;;;;8.27;68.72;100638.16;10416823;28;20430;-80
2023/03/07 07:27:24;;;;;;;24.73;17.95;;;;;;;8.78;69.41;100711.78;10418474;28;20125;-80
2023/03/07 07:32:25;;;;;;;21.58;15.98;;;;;;;8.81;68.95;100681.53;10416267;28;20053;-80
2023/03/07 07:37:26;;;;;;;19.30;13.00;;;;;;;8.94;66.91;100702.34;10416750;28;20505;-81
2023/03/07 07:42:27;;;;;;;16.63;11.23;;;;;;;9.27;65.46;100707.03;10416494;28;20061;-80
2023/03/07 07:47:27;;;;;;;15.50;8.73;;;;;;;9.22;63.75;100681.97;10416072;28;20132;-80
2023/03/07 07:52:28;;;;;;;11.57;7.20;;;;;;;8.72;61.16;100589.72;10416378;28;20049;-80
2023/03/07 07:57:29;;;;;;;9.60;5.85;;;;;;;9.69;59.47;100702.91;10425499;28;20464;-80
2023/03/07 08:02:30;;;;;;;12.95;5.75;;;;;;;9.70;57.59;100707.25;10415067;28;20442;-79
2023/03/07 08:07:30;;;;;;;6.05;4.10;;;;;;;9.35;56.22;100643.47;10414969;28;20049;-80
2023/03/07 08:12:31;;;;;;;12.77;8.30;;;;;;;9.65;56.42;100680.34;10415058;28;20085;-79
2023/03/07 08:17:32;;;;;;;17.40;10.50;;;;;;;9.93;56.25;100719.06;10415449;28;20106;-79
2023/03/07 08:22:34;;;;;;;17.85;12.10;;;;;;;9.93;56.34;100713.75;10414800;28;20095;-78
2023/03/07 08:27:35;;;;;;;21.98;12.68;;;;;;;9.39;57.69;100590.97;10396646;28;20077;-79
2023/03/07 08:32:35;;;;;;;18.48;11.38;;;;;;;10.10;56.89;100706.72;10414470;28;20493;-79
2023/03/07 08:37:36;;;;;;;16.67;11.60;;;;;;;10.14;56.51;100712.53;10412518;28;20049;-79
2023/03/07 08:42:37;;;;;;;14.55;10.98;;;;;;;10.13;56.52;100697.59;10413678;28;20444;-79
2023/03/07 08:47:37;;;;;;;14.93;9.35;;;;;;;10.04;54.40;100673.66;10413957;28;20045;-79
2023/03/07 08:52:38;;;;;;;16.35;10.07;;;;;;;9.68;54.95;100597.81;10414335;28;20049;-78
2023/03/07 08:57:40;;;;;;;12.18;8.40;;;;;;;10.27;54.12;100679.31;10413720;28;20055;-78
2023/03/07 09:02:40;;;;;;;17.65;11.15;;;;;;;10.66;54.40;100705.38;10413661;28;20107;-78
2023/03/07 09:07:41;;;;;;;17.17;11.13;;;;;;;10.57;54.31;100689.59;10413400;28;20053;-79
2023/03/07 09:12:42;;;;;;;17.33;11.60;;;;;;;10.51;53.84;100686.56;10414285;28;20060;-80
2023/03/07 09:17:43;;;;;;;16.75;11.00;;;;;;;10.60;53.75;100671.50;10413022;28;20433;-81
2023/03/07 09:22:45;;;;;;;18.90;11.40;;;;;;;10.81;53.65;100668.41;10412215;28;20422;-78
2023/03/07 09:27:46;;;;;;;16.38;12.07;;;;;;;10.72;53.62;100594.97;10413101;28;20049;-79
2023/03/07 09:32:47;;;;;;;17.40;12.30;;;;;;;11.19;53.14;100674.16;10412885;28;20042;-78
2023/03/07 09:37:48;;;;;;;19.58;12.13;;;;;;;11.08;53.06;100682.44;10413738;28;20498;-77
2023/03/07 09:43:00;;;;;;;15.55;11.50;;;;;;;10.11;51.97;100506.66;10412549;28;20486;-78
2023/03/07 09:48:19;;;;;;;21.42;12.55;;;;;;;11.24;50.47;100665.66;10394955;28;20049;-78
2023/03/07 09:53:37;;;;;;;16.30;12.00;;;;;;;10.85;50.73;100605.94;10412417;28;20147;-78
2023/03/07 09:58:43;;;;;;;18.17;12.77;;;;;;;10.69;50.03;100590.81;10411818;28;20045;-78
2023/03/07 10:03:53;;;;;;;17.90;12.98;;;;;;;11.22;51.40;100657.00;10412307;28;20103;-78
2023/03/07 10:08:54;;;;;;;19.70;13.40;;;;;;;10.85;51.14;100591.84;10411655;28;20053;-78
2023/03/07 10:14:21;;;;;;;15.77;12.27;;;;;;;11.51;50.62;100638.75;10411760;28;20053;-80
2023/03/07 10:19:24;;;;;;;16.13;12.18;;;;;;;11.54;51.03;100641.06;10411667;28;20057;-78
2023/03/07 10:24:49;;;;;;;19.15;12.73;;;;;;;11.47;48.92;100641.91;10412026;28;20058;-78
2023/03/07 10:29:55;;;;;;;15.75;11.40;;;;;;;11.20;46.89;100594.19;10421222;28;20049;-78
2023/03/07 10:35:11;;;;;;;16.80;12.25;;;;;;;11.61;48.10;100625.28;10454953;28;20060;-80
2023/03/07 10:40:20;;;;;;;17.98;12.00;;;;;;;10.82;49.17;100531.88;10425298;28;20073;-77
2023/03/07 10:45:21;;;;;;;22.33;12.23;;;;;;;11.30;50.07;100612.66;10430003;28;20099;-80
2023/03/07 10:50:37;;;;;;;16.75;11.48;;;;;;;11.42;49.20;100598.00;10419352;28;20140;-77
2023/03/07 10:55:40;;;;;;;15.77;10.95;;;;;;;11.38;49.10;100550.66;10428873;28;20453;-79
2023/03/07 11:00:43;;;;;;;12.95;10.38;;;;;;;11.64;48.28;100583.22;10418689;28;20089;-76
2023/03/07 11:05:47;;;;;;;19.33;11.85;;;;;;;11.31;48.41;100533.72;10429364;28;20556;-79
2023/03/07 11:10:48;;;;;;;14.10;10.63;;;;;;;11.56;48.11;100577.88;10417251;28;20049;-81
2023/03/07 11:15:50;;;;;;;14.27;10.32;;;;;;;11.33;47.10;100556.47;10431349;28;20195;-80
2023/03/07 11:20:51;;;;;;;13.07;9.70;;;;;;;11.30;47.65;100562.13;10424239;28;20061;-81
2023/03/07 11:25:54;;;;;;;15.73;10.68;;;;;;;11.59;47.61;100587.38;10436669;28;20045;-79
2023/03/07 11:31:20;;;;;;;16.27;11.73;;;;;;;11.94;47.17;100603.97;10416356;28;20053;-80
2023/03/07 11:36:32;;;;;;;15.68;11.45;;;;;;;12.01;47.13;100616.41;10409065;28;20053;-78
2023/03/07 11:41:40;;;;;;;16.25;10.60;;;;;;;11.91;47.08;100599.81;10415945;28;20153;-78
2023/03/07 11:46:41;;;;;;;13.63;10.43;;;;;;;11.80;47.53;100602.81;10408686;28;20378;-80
2023/03/07 11:52:16;;;;;;;14.00;10.55;;;;;;;11.58;47.03;100609.66;10410935;28;20132;-78
2023/03/07 11:57:31;;;;;;;13.02;9.95;;;;;;;11.18;46.75;100568.78;10413878;28;20614;-79
2023/03/07 12:02:40;;;;;;;14.70;10.60;;;;;;;11.40;47.08;100610.66;10409184;28;20049;-80
2023/03/07 12:07:59;;;;;;;13.68;10.20;;;;;;;11.31;46.73;100610.84;10387808;28;20042;-81
2023/03/07 12:13:12;;;;;;;13.43;9.50;;;;;;;11.28;47.43;100604.03;10408440;28;20045;-79
2023/03/07 12:18:22;;;;;;;16.05;10.98;;;;;;;11.41;46.50;100612.31;10411551;28;20057;-78
2023/03/07 12:23:47;;;;;;;12.75;9.93;;;;;;;11.02;47.84;100528.91;10414004;28;20100;-77
2023/03/07 12:28:49;;;;;;;14.68;9.38;;;;;;;11.26;47.61;100595.38;10413720;28;20053;-77
2023/03/07 12:34:18;;;;;;;13.88;9.98;;;;;;;10.69;47.39;100515.59;10406877;28;20405;-77
2023/03/07 12:39:52;;;;;;;12.38;9.18;;;;;;;11.18;47.36;100606.00;10405804;28;20045;-78
2023/03/07 12:45:08;;;;;;;;;;;;;;;11.22;49.28;100599.38;10427269;28;20070;-77
2023/03/07 12:50:22;;;;;;;13.32;9.27;;;;;;;11.03;47.95;100599.66;10409553;28;20031;-77
2023/03/07 12:55:42;;;;;;;15.82;9.63;;;;;;;10.96;47.86;100602.16;10408388;28;20056;-76
2023/03/07 13:00:49;;;;;;;12.43;9.13;;;;;;;10.70;47.90;100583.69;10406857;28;20409;-77
2023/03/07 13:05:50;;;;;;;11.35;7.40;;;;;;;10.59;47.90;100600.78;10408520;28;20076;-77
2023/03/07 13:10:51;;;;;;;14.48;8.27;;;;;;;10.50;48.71;100599.91;10390033;28;20052;-77
2023/03/07 13:16:05;;;;;;;13.90;9.20;;;;;;;10.43;48.86;100585.59;10418642;28;20045;-78
2023/03/07 13:21:32;;;;;;;14.20;8.18;;;;;;;10.46;49.61;100593.22;10430204;28;20523;-77
2023/03/07 13:26:33;;;;;;;12.93;8.13;;;;;;;10.35;49.32;100595.34;10440668;28;20072;-77
2023/03/07 13:31:38;;;;;;;10.65;7.07;;;;;;;10.33;49.61;100592.03;10453988;28;20493;-77
2023/03/07 13:36:39;;;;;;;9.70;6.80;;;;;;;9.62;49.40;100487.84;10454688;28;20083;-77
2023/03/07 13:41:49;;;;;;;11.45;6.95;;;;;;;9.94;49.09;100534.13;10453218;28;20103;-77
2023/03/07 13:46:54;;;;;;;10.57;6.78;;;;;;;10.10;49.86;100578.47;10453932;28;20052;-77
2023/03/07 13:52:32;;;;;;;10.73;6.85;;;;;;;9.35;49.52;100497.66;10436672;28;20053;-77
2023/03/07 13:57:38;;;;;;;9.95;6.47;;;;;;;9.21;49.86;100511.47;10333782;28;20049;-77
2023/03/07 14:02:40;;;;;;;11.70;6.22;;;;;;;9.55;50.33;100577.00;10453434;28;20452;-77
2023/03/07 14:07:42;;;;;;;9.93;5.70;;;;;;;9.28;50.22;100547.00;10459421;28;20047;-77
2023/03/07 14:13:04;;;;;;;10.00;6.22;;;;;;;9.60;50.75;100602.09;10443704;28;20052;-78
2023/03/07 14:18:23;;;;;;;12.35;7.18;;;;;;;8.98;50.82;100520.91;10460498;28;20059;-78
2023/03/07 14:23:49;;;;;;;17.27;7.03;;;;;;;9.45;51.49;100618.69;10460815;28;20048;-77
2023/03/07 14:28:57;;;;;;;13.02;6.05;;;;;;;9.33;51.62;100615.44;10460881;28;20071;-77
2023/03/07 14:33:58;;;;;;;15.13;8.18;;;;;;;9.14;52.31;100603.19;10460125;28;20140;-77
2023/03/07 14:39:03;;;;;;;10.25;6.43;;;;;;;8.35;52.90;100524.44;10460417;28;20041;-77
2023/03/07 14:44:29;;;;;;;10.73;6.70;;;;;;;8.70;54.05;100605.75;10460655;28;20060;-77
2023/03/07 14:49:40;;;;;;;11.48;6.78;;;;;;;8.32;54.41;100601.50;10460764;28;20420;-77
2023/03/07 14:54:45;;;;;;;9.98;6.43;;;;;;;7.65;55.15;100537.28;10460424;28;20061;-77
2023/03/07 15:00:11;;;;;;;10.10;6.95;;;;;;;8.00;55.63;100621.25;10458984;28;20126;-77
2023/03/07 15:05:24;;;;;;;20.00;10.82;;;;;;;7.65;56.12;100604.22;10459889;28;20052;-77
2023/03/07 15:10:31;;;;;;;11.35;7.72;;;;;;;7.41;56.61;100609.97;10462186;28;20053;-76
2023/03/07 15:15:36;;;;;;;29.25;15.15;;;;;;;7.15;57.13;100636.13;10426265;28;20065;-77
2023/03/07 15:20:37;;;;;;;41.17;26.23;;;;;;;6.38;58.19;100571.69;10457467;28;20554;-77
2023/03/07 15:25:39;;;;;;;35.85;20.15;;;;;;;6.08;58.96;100563.81;10438539;28;20501;-78
2023/03/07 15:30:41;;;;;;;21.05;14.10;;;;;;;6.42;59.54;100663.78;10441985;28;20172;-78
2023/03/07 15:35:44;;;;;;;17.73;10.18;;;;;;;6.07;60.38;100659.72;10421996;28;20051;-77
2023/03/07 15:40:45;;;;;;;17.70;9.40;;;;;;;5.33;61.78;100576.31;10446833;28;20099;-78
2023/03/07 15:46:07;;;;;;;14.88;7.93;;;;;;;5.41;63.27;100621.28;10427949;28;20063;-79
2023/03/07 15:51:15;;;;;;;20.25;7.80;;;;;;;5.37;63.47;100662.00;10427104;28;20405;-78
2023/03/07 15:56:25;;;;;;;12.07;7.03;;;;;;;5.44;64.89;100694.81;10418570;28;20049;-79
2023/03/07 16:01:26;;;;;;;11.73;6.80;;;;;;;5.16;63.40;100674.31;10415986;28;20091;-77
2023/03/07 16:06:40;;;;;;;11.30;6.80;;;;;;;4.57;65.10;100615.81;10402141;28;20050;-77
2023/03/07 16:11:41;;;;;;;;;;;;;;;5.00;63.53;100696.63;10420627;28;20129;-78
2023/03/07 16:16:42;;;;;;;10.20;6.00;;;;;;;4.58;63.64;100675.41;10398470;28;20015;-76
2023/03/07 16:21:43;;;;;;;14.38;7.43;;;;;;;4.54;64.26;100688.91;10430246;28;20053;-79
2023/03/07 16:26:45;;;;;;;19.45;8.73;;;;;;;4.25;65.16;100662.28;10416690;28;20053;-78
2023/03/07 16:31:46;;;;;;;13.27;7.43;;;;;;;4.12;64.84;100665.00;10407488;28;20053;-79
2023/03/07 16:36:47;;;;;;;12.88;6.78;;;;;;;4.17;65.82;100704.09;10432409;28;20057;-77
2023/03/07 16:41:49;;;;;;;14.45;6.90;;;;;;;3.34;66.24;100577.22;10444074;28;20138;-77
2023/03/07 16:47:14;;;;;;;9.32;6.05;;;;;;;3.95;67.92;100687.34;10437510;28;20056;-79
2023/03/07 16:52:15;;;;;;;10.00;6.05;;;;;;;3.91;66.78;100706.91;10414731;28;20405;-78
2023/03/07 16:57:16;;;;;;;11.93;6.30;;;;;;;2.51;66.82;100509.91;10424799;28;20056;-77
2023/03/07 17:02:19;;;;;;;9.50;6.18;;;;;;;3.62;68.22;100702.06;10413294;28;20052;-77
2023/03/07 17:07:22;;;;;;;11.65;6.30;;;;;;;3.43;67.89;100685.97;10416542;28;20057;-79
2023/03/07 17:12:23;;;;;;;9.23;6.30;;;;;;;3.25;68.19;100668.97;10422276;28;20124;-75
2023/03/07 17:17:29;;;;;;;8.00;5.45;;;;;;;3.42;69.64;100710.59;10422968;28;20048;-77
2023/03/07 17:22:30;;;;;;;9.60;6.13;;;;;;;3.25;69.13;100693.44;10455872;28;20045;-77
2023/03/07 17:27:33;;;;;;;11.63;5.97;;;;;;;3.23;68.93;100716.34;10420656;28;20081;-78
2023/03/07 17:32:33;;;;;;;8.98;5.43;;;;;;;2.78;69.39;100636.50;10415377;28;20049;-77
2023/03/07 17:37:35;;;;;;;9.32;5.63;;;;;;;3.24;69.49;100725.06;10399236;28;20071;-78
2023/03/07 17:42:37;;;;;;;12.05;5.70;;;;;;;2.97;69.67;100684.09;10427644;28;20457;-78
2023/03/07 17:47:38;;;;;;;10.05;5.10;;;;;;;3.23;70.13;100716.34;10420587;28;20049;-78
2023/03/07 17:52:39;;;;;;;8.07;4.72;;;;;;;2.59;69.64;100627.34;10419583;28;20041;-78
2023/03/07 17:57:40;;;;;;;8.48;4.20;;;;;;;2.91;70.10;100689.81;10423390;28;20506;-78
2023/03/07 18:02:42;;;;;;;8.20;4.55;;;;;;;1.82;69.70;100533.19;10427764;28;20061;-78
2023/03/07 18:07:43;;;;;;;11.80;4.47;;;;;;;3.02;70.28;100724.00;10432607;28;20060;-78
2023/03/07 18:12:44;;;;;;;12.18;4.32;;;;;;;1.36;70.07;100460.44;10420279;28;20053;-79
2023/03/07 18:17:48;;;;;;;7.75;4.10;;;;;;;2.78;70.48;100691.59;10430948;28;20050;-78
2023/03/07 18:22:48;;;;;;;15.75;4.30;;;;;;;2.27;70.51;100616.50;10419106;28;20092;-79
2023/03/07 18:27:49;;;;;;;8.27;3.35;;;;;;;2.88;70.50;100727.59;10418551;28;20092;-79
2023/03/07 18:32:54;;;;;;;5.78;2.92;;;;;;;2.55;70.61;100667.88;10418881;28;20140;-79
2023/03/07 18:37:54;;;;;;;5.50;3.40;;;;;;;2.70;70.30;100698.25;10419523;28;20046;-78
2023/03/07 18:42:58;;;;;;;5.78;3.28;;;;;;;2.81;70.40;100720.25;10418957;28;20053;-79
2023/03/07 18:47:58;;;;;;;5.57;3.20;;;;;;;2.07;70.35;100607.44;10417067;28;20045;-79
2023/03/07 18:52:59;;;;;;;4.80;3.10;;;;;;;2.16;70.41;100626.94;10427670;28;20049;-80
2023/03/07 18:58:00;;;;;;;3.85;2.55;;;;;;;1.55;70.24;100532.44;10417908;28;20064;-80
2023/03/07 19:03:01;;;;;;;4.95;2.75;;;;;;;2.08;69.87;100616.97;10418866;28;20064;-79
2023/03/07 19:08:02;;;;;;;5.78;3.00;;;;;;;1.86;70.29;100596.66;10418023;28;20551;-79
2023/03/07 19:13:05;;;;;;;5.45;3.28;;;;;;;2.57;70.88;100735.94;10416626;28;20057;-80
2023/03/07 19:18:05;;;;;;;4.70;2.90;;;;;;;1.96;70.56;100651.88;10418080;28;20067;-80
2023/03/07 19:23:06;;;;;;;6.32;2.75;;;;;;;1.99;70.72;100647.28;10428660;28;20063;-79
2023/03/07 19:28:07;;;;;;;4.18;2.50;;;;;;;1.15;70.79;100519.47;10399607;28;20048;-79
2023/03/07 19:33:08;;;;;;;5.93;3.15;;;;;;;2.21;70.89;100704.28;10416683;28;20428;-79
2023/03/07 19:38:09;;;;;;;5.75;3.38;;;;;;;2.18;70.87;100722.84;10416390;28;20132;-79
2023/03/07 19:43:09;;;;;;;5.40;2.78;;;;;;;1.53;71.11;100632.06;10416545;28;20057;-78
2023/03/07 19:48:10;;;;;;;5.55;2.38;;;;;;;1.68;71.04;100648.53;10416598;28;20077;-79
2023/03/07 19:53:11;;;;;;;4.90;2.88;;;;;;;1.68;71.13;100630.19;10417748;28;20199;-80
2023/03/07 19:58:12;;;;;;;4.65;2.80;;;;;;;1.85;70.78;100649.97;10426956;28;20053;-79
2023/03/07 20:03:18;;;;;;;5.25;2.75;;;;;;;2.22;70.21;100710.38;10432927;28;20390;-81
2023/03/07 20:08:18;;;;;;;7.38;3.35;;;;;;;2.23;70.05;100704.19;10414239;28;20141;-79
2023/03/07 20:13:19;;;;;;;5.38;3.05;;;;;;;2.27;69.76;100696.03;10397475;28;20136;-79
2023/03/07 20:18:20;;;;;;;4.40;2.42;;;;;;;2.22;69.70;100687.63;10397578;28;20516;-79
2023/03/07 20:23:21;;;;;;;4.15;2.50;;;;;;;1.24;68.80;100537.16;10414772;28;20053;-79
2023/03/07 20:28:21;;;;;;;6.82;2.78;;;;;;;1.90;69.31;100647.06;10410052;28;20057;-76
2023/03/07 20:33:22;;;;;;;5.75;3.20;;;;;;;1.90;69.14;100655.75;10420583;28;20416;-77
2023/03/07 20:38:23;;;;;;;6.82;3.03;;;;;;;1.83;69.17;100644.03;10434341;28;20115;-77
2023/03/07 20:43:25;;;;;;;10.63;3.65;;;;;;;2.00;69.26;100671.69;10413006;28;20052;-77
2023/03/07 20:48:25;;;;;;;8.57;3.53;;;;;;;1.08;68.86;100529.53;10414039;28;20081;-77
2023/03/07 20:53:26;;;;;;;6.93;3.70;;;;;;;2.05;68.74;100683.53;10414048;28;20076;-77
2023/03/07 20:58:28;;;;;;;9.73;4.50;;;;;;;1.54;68.71;100602.31;10425358;28;20045;-76
2023/03/07 21:03:29;;;;;;;8.13;4.07;;;;;;;1.45;68.92;100575.94;10412435;28;20049;-77
2023/03/07 21:08:33;;;;;;;8.18;4.45;;;;;;;1.49;68.71;100588.69;10413375;28;20059;-77
2023/03/07 21:13:36;;;;;;;11.80;4.40;;;;;;;1.98;68.43;100670.97;10414636;28;20401;-77
2023/03/07 21:18:37;;;;;;;9.05;4.65;;;;;;;1.06;68.17;100515.69;10422104;28;20103;-76
2023/03/07 21:23:39;;;;;;;10.65;4.78;;;;;;;1.96;68.52;100664.97;10412390;28;20057;-76
2023/03/07 21:28:40;;;;;;;9.00;4.85;;;;;;;1.20;68.55;100540.94;10395551;28;20049;-76
2023/03/07 21:33:42;;;;;;;6.80;4.47;;;;;;;1.99;68.46;100668.22;10413380;28;20433;-76
2023/03/07 21:38:44;;;;;;;9.95;5.13;;;;;;;1.08;68.44;100526.06;10394766;28;20071;-76
2023/03/07 21:43:45;;;;;;;10.38;5.07;;;;;;;1.80;68.45;100641.63;10413449;28;20045;-76
2023/03/07 21:48:46;;;;;;;13.77;4.85;;;;;;;1.32;68.49;100574.13;10412357;28;20103;-76
2023/03/07 21:53:47;;;;;;;9.18;4.80;;;;;;;1.77;68.33;100650.53;10412308;28;20056;-77
2023/03/07 21:58:49;;;;;;;8.90;4.93;;;;;;;1.56;68.42;100610.09;10412701;28;20048;-76
2023/03/07 22:03:55;;;;;;;8.10;4.90;;;;;;;1.45;68.15;100596.88;10412379;28;20050;-76
2023/03/07 22:08:58;;;;;;;9.82;5.35;;;;;;;1.16;68.62;100560.38;10412294;28;20049;-76
2023/03/07 22:13:59;;;;;;;8.30;4.97;;;;;;;1.07;68.56;100551.38;10412378;28;20061;-76
2023/03/07 22:18:59;;;;;;;6.82;4.68;;;;;;;1.01;68.83;100548.31;10412763;28;20060;-78
2023/03/07 22:24:00;;;;;;;8.98;5.05;;;;;;;1.18;69.07;100574.22;10412980;28;20095;-76
2023/03/07 22:29:02;;;;;;;8.95;4.85;;;;;;;1.42;68.90;100625.88;10418018;28;20049;-76
2023/03/07 22:34:03;;;;;;;8.65;4.90;;;;;;;1.42;69.00;100624.09;10419739;28;20053;-76
2023/03/07 22:39:06;;;;;;;9.13;5.35;;;;;;;0.87;69.33;100550.09;10419226;28;20042;-76
2023/03/07 22:44:06;;;;;;;7.00;4.72;;;;;;;1.08;68.83;100565.31;10418730;28;20116;-76
2023/03/07 22:49:09;;;;;;;9.23;5.35;;;;;;;1.30;69.02;100615.28;10418774;28;20108;-77
2023/03/07 22:54:10;;;;;;;11.18;4.68;;;;;;;1.60;69.13;100654.28;10418820;28;20477;-76
2023/03/07 22:59:11;;;;;;;11.25;5.28;;;;;;;0.93;69.35;100527.06;10417866;28;20080;-76
2023/03/07 23:04:12;;;;;;;10.63;5.47;;;;;;;1.10;69.06;100539.88;10418476;28;20041;-76
2023/03/07 23:09:13;;;;;;;7.90;4.38;;;;;;;1.20;69.18;100542.69;10418034;28;20056;-76
2023/03/07 23:14:14;;;;;;;7.80;5.07;;;;;;;1.51;69.73;100575.50;10417725;28;20042;-76